sensor_id;sensor_type;location;lat;lon;timestamp;temperature;humidity
27492;DHT22;14927;51.210;6.838;2024-03-06T00:02:28;10.60;66.70
27492;DHT22;14927;51.210;6.838;2024-03-06T00:05:13;10.60;66.80
27492;DHT22;14927;51.210;6.838;2024-03-06T00:07:57;10.60;66.90
27492;DHT22;14927;51.210;6.838;2024-03-06T00:10:42;10.60;66.90
27492;DHT22;14927;51.210;6.838;2024-03-06T00:13:27;10.70;67.00
27492;DHT22;14927;51.210;6.838;2024-03-06T00:16:11;10.60;66.90
27492;DHT22;14927;51.210;6.838;2024-03-06T00:18:56;10.60;66.90
27492;DHT22;14927;51.210;6.838;2024-03-06T00:21:41;10.60;66.90
27492;DHT22;14927;51.210;6.838;2024-03-06T00:24:25;10.60;66.80
27492;DHT22;14927;51.210;6.838;2024-03-06T00:27:10;10.60;66.80
27492;DHT22;14927;51.210;6.838;2024-03-06T00:29:54;10.60;66.80
27492;DHT22;14927;51.210;6.838;2024-03-06T00:32:39;10.60;66.70
27492;DHT22;14927;51.210;6.838;2024-03-06T00:35:24;10.60;66.60
27492;DHT22;14927;51.210;6.838;2024-03-06T00:38:08;10.60;66.50
27492;DHT22;14927;51.210;6.838;2024-03-06T00:40:53;10.60;66.40
27492;DHT22;14927;51.210;6.838;2024-03-06T00:43:37;10.60;66.40
27492;DHT22;14927;51.210;6.838;2024-03-06T00:46:22;10.80;67.20
27492;DHT22;14927;51.210;6.838;2024-03-06T00:49:07;10.60;66.30
27492;DHT22;14927;51.210;6.838;2024-03-06T00:51:52;10.60;66.20
27492;DHT22;14927;51.210;6.838;2024-03-06T00:54:36;10.60;66.20
27492;DHT22;14927;51.210;6.838;2024-03-06T00:57:21;10.50;66.10
27492;DHT22;14927;51.210;6.838;2024-03-06T01:00:06;10.50;66.10
27492;DHT22;14927;51.210;6.838;2024-03-06T01:02:54;10.50;66.10
27492;DHT22;14927;51.210;6.838;2024-03-06T01:05:39;10.50;66.10
27492;DHT22;14927;51.210;6.838;2024-03-06T01:08:24;10.70;67.00
27492;DHT22;14927;51.210;6.838;2024-03-06T01:11:09;10.40;66.20
27492;DHT22;14927;51.210;6.838;2024-03-06T01:13:55;10.40;66.10
27492;DHT22;14927;51.210;6.838;2024-03-06T01:16:40;10.40;66.20
27492;DHT22;14927;51.210;6.838;2024-03-06T01:19:24;10.30;66.10
27492;DHT22;14927;51.210;6.838;2024-03-06T01:22:10;10.40;66.20
27492;DHT22;14927;51.210;6.838;2024-03-06T01:24:54;10.30;66.10
27492;DHT22;14927;51.210;6.838;2024-03-06T01:27:39;10.30;66.10
27492;DHT22;14927;51.210;6.838;2024-03-06T01:30:23;10.30;66.10
27492;DHT22;14927;51.210;6.838;2024-03-06T01:33:08;10.30;66.10
27492;DHT22;14927;51.210;6.838;2024-03-06T01:35:54;10.50;66.30
27492;DHT22;14927;51.210;6.838;2024-03-06T01:38:38;10.40;66.30
27492;DHT22;14927;51.210;6.838;2024-03-06T01:41:23;10.20;66.20
27492;DHT22;14927;51.210;6.838;2024-03-06T01:44:07;10.20;66.20
27492;DHT22;14927;51.210;6.838;2024-03-06T01:46:52;10.20;66.20
27492;DHT22;14927;51.210;6.838;2024-03-06T01:49:37;10.10;66.10
27492;DHT22;14927;51.210;6.838;2024-03-06T01:52:22;10.10;66.20
27492;DHT22;14927;51.210;6.838;2024-03-06T01:55:07;10.10;66.20
27492;DHT22;14927;51.210;6.838;2024-03-06T01:57:52;10.00;66.20
27492;DHT22;14927;51.210;6.838;2024-03-06T02:00:37;10.10;66.40
27492;DHT22;14927;51.210;6.838;2024-03-06T02:03:22;10.00;66.40
27492;DHT22;14927;51.210;6.838;2024-03-06T02:06:07;10.00;66.30
27492;DHT22;14927;51.210;6.838;2024-03-06T02:08:54;10.00;66.20
27492;DHT22;14927;51.210;6.838;2024-03-06T02:11:39;10.00;66.20
27492;DHT22;14927;51.210;6.838;2024-03-06T02:14:24;10.20;66.30
27492;DHT22;14927;51.210;6.838;2024-03-06T02:17:10;9.90;66.00
27492;DHT22;14927;51.210;6.838;2024-03-06T02:19:55;9.90;66.00
27492;DHT22;14927;51.210;6.838;2024-03-06T02:22:42;9.90;66.10
27492;DHT22;14927;51.210;6.838;2024-03-06T02:25:27;9.90;66.20
27492;DHT22;14927;51.210;6.838;2024-03-06T02:28:11;9.90;66.30
27492;DHT22;14927;51.210;6.838;2024-03-06T02:30:56;9.90;66.40
27492;DHT22;14927;51.210;6.838;2024-03-06T02:33:41;10.00;66.60
27492;DHT22;14927;51.210;6.838;2024-03-06T02:36:27;9.80;66.70
27492;DHT22;14927;51.210;6.838;2024-03-06T02:39:12;9.90;66.90
27492;DHT22;14927;51.210;6.838;2024-03-06T02:41:56;9.80;67.00
27492;DHT22;14927;51.210;6.838;2024-03-06T02:44:41;9.80;67.20
27492;DHT22;14927;51.210;6.838;2024-03-06T02:47:25;9.80;67.40
27492;DHT22;14927;51.210;6.838;2024-03-06T02:50:10;9.90;67.60
27492;DHT22;14927;51.210;6.838;2024-03-06T02:52:55;9.80;67.60
27492;DHT22;14927;51.210;6.838;2024-03-06T02:55:39;9.80;67.60
27492;DHT22;14927;51.210;6.838;2024-03-06T02:58:24;9.90;67.80
27492;DHT22;14927;51.210;6.838;2024-03-06T03:01:08;9.80;67.70
27492;DHT22;14927;51.210;6.838;2024-03-06T03:03:53;9.80;67.70
27492;DHT22;14927;51.210;6.838;2024-03-06T03:06:38;9.90;67.90
27492;DHT22;14927;51.210;6.838;2024-03-06T03:09:22;10.00;68.00
27492;DHT22;14927;51.210;6.838;2024-03-06T03:12:07;10.10;68.10
27492;DHT22;14927;51.210;6.838;2024-03-06T03:14:51;9.80;68.00
27492;DHT22;14927;51.210;6.838;2024-03-06T03:17:36;10.10;68.00
27492;DHT22;14927;51.210;6.838;2024-03-06T03:20:21;10.00;67.90
27492;DHT22;14927;51.210;6.838;2024-03-06T03:23:05;9.90;67.70
27492;DHT22;14927;51.210;6.838;2024-03-06T03:25:55;9.90;67.70
27492;DHT22;14927;51.210;6.838;2024-03-06T03:28:40;10.00;68.30
27492;DHT22;14927;51.210;6.838;2024-03-06T03:31:25;10.00;67.50
27492;DHT22;14927;51.210;6.838;2024-03-06T03:34:10;10.00;67.60
27492;DHT22;14927;51.210;6.838;2024-03-06T03:36:54;10.00;67.70
27492;DHT22;14927;51.210;6.838;2024-03-06T03:39:39;10.10;67.80
27492;DHT22;14927;51.210;6.838;2024-03-06T03:42:23;10.00;67.80
27492;DHT22;14927;51.210;6.838;2024-03-06T03:45:08;10.00;67.80
27492;DHT22;14927;51.210;6.838;2024-03-06T03:47:53;10.00;67.80
27492;DHT22;14927;51.210;6.838;2024-03-06T03:50:37;10.10;67.90
27492;DHT22;14927;51.210;6.838;2024-03-06T03:53:22;10.00;67.80
27492;DHT22;14927;51.210;6.838;2024-03-06T03:56:07;10.10;67.90
27492;DHT22;14927;51.210;6.838;2024-03-06T03:58:51;10.20;67.90
27492;DHT22;14927;51.210;6.838;2024-03-06T04:01:36;10.10;67.80
27492;DHT22;14927;51.210;6.838;2024-03-06T04:04:20;10.00;67.70
27492;DHT22;14927;51.210;6.838;2024-03-06T04:07:05;10.10;67.70
27492;DHT22;14927;51.210;6.838;2024-03-06T04:09:50;10.10;67.60
27492;DHT22;14927;51.210;6.838;2024-03-06T04:12:34;10.00;67.40
27492;DHT22;14927;51.210;6.838;2024-03-06T04:15:19;10.00;67.30
27492;DHT22;14927;51.210;6.838;2024-03-06T04:18:04;10.10;67.10
27492;DHT22;14927;51.210;6.838;2024-03-06T04:20:48;10.10;67.00
27492;DHT22;14927;51.210;6.838;2024-03-06T04:23:33;10.00;66.90
27492;DHT22;14927;51.210;6.838;2024-03-06T04:26:18;10.10;66.90
27492;DHT22;14927;51.210;6.838;2024-03-06T04:29:02;10.10;66.80
27492;DHT22;14927;51.210;6.838;2024-03-06T04:31:47;10.10;66.80
27492;DHT22;14927;51.210;6.838;2024-03-06T04:34:31;10.00;66.80
27492;DHT22;14927;51.210;6.838;2024-03-06T04:37:16;10.00;66.90
27492;DHT22;14927;51.210;6.838;2024-03-06T04:40:02;10.00;66.90
27492;DHT22;14927;51.210;6.838;2024-03-06T04:42:47;10.00;67.00
27492;DHT22;14927;51.210;6.838;2024-03-06T04:45:32;9.90;67.00
27492;DHT22;14927;51.210;6.838;2024-03-06T04:48:16;10.00;67.10
27492;DHT22;14927;51.210;6.838;2024-03-06T04:51:01;9.90;67.20
27492;DHT22;14927;51.210;6.838;2024-03-06T04:53:45;9.90;67.20
27492;DHT22;14927;51.210;6.838;2024-03-06T04:56:30;10.10;67.40
27492;DHT22;14927;51.210;6.838;2024-03-06T04:59:14;10.20;67.60
27492;DHT22;14927;51.210;6.838;2024-03-06T05:01:59;9.90;67.60
27492;DHT22;14927;51.210;6.838;2024-03-06T05:04:44;9.80;67.60
27492;DHT22;14927;51.210;6.838;2024-03-06T05:07:29;9.90;67.80
27492;DHT22;14927;51.210;6.838;2024-03-06T05:10:14;9.90;67.80
27492;DHT22;14927;51.210;6.838;2024-03-06T05:13:00;9.90;67.90
27492;DHT22;14927;51.210;6.838;2024-03-06T05:15:45;9.90;68.00
27492;DHT22;14927;51.210;6.838;2024-03-06T05:18:29;9.90;68.00
27492;DHT22;14927;51.210;6.838;2024-03-06T05:21:14;9.90;68.00
27492;DHT22;14927;51.210;6.838;2024-03-06T05:23:58;10.10;68.10
27492;DHT22;14927;51.210;6.838;2024-03-06T05:26:43;9.90;68.00
27492;DHT22;14927;51.210;6.838;2024-03-06T05:29:28;9.70;67.90
27492;DHT22;14927;51.210;6.838;2024-03-06T05:32:13;9.90;68.10
27492;DHT22;14927;51.210;6.838;2024-03-06T05:34:58;9.90;68.10
27492;DHT22;14927;51.210;6.838;2024-03-06T05:37:43;9.90;68.10
27492;DHT22;14927;51.210;6.838;2024-03-06T05:40:27;9.90;68.20
27492;DHT22;14927;51.210;6.838;2024-03-06T05:43:12;10.00;68.20
27492;DHT22;14927;51.210;6.838;2024-03-06T05:45:57;9.90;68.90
27492;DHT22;14927;51.210;6.838;2024-03-06T05:48:42;9.90;68.00
27492;DHT22;14927;51.210;6.838;2024-03-06T05:51:26;9.90;67.90
27492;DHT22;14927;51.210;6.838;2024-03-06T05:54:11;9.90;67.40
27492;DHT22;14927;51.210;6.838;2024-03-06T05:56:56;9.90;67.90
27492;DHT22;14927;51.210;6.838;2024-03-06T05:59:40;9.90;68.10
27492;DHT22;14927;51.210;6.838;2024-03-06T06:02:25;9.90;68.30
27492;DHT22;14927;51.210;6.838;2024-03-06T06:05:09;9.90;68.50
27492;DHT22;14927;51.210;6.838;2024-03-06T06:07:54;9.90;68.70
27492;DHT22;14927;51.210;6.838;2024-03-06T06:10:39;9.90;68.80
27492;DHT22;14927;51.210;6.838;2024-03-06T06:13:23;10.00;68.90
27492;DHT22;14927;51.210;6.838;2024-03-06T06:16:08;10.00;68.80
27492;DHT22;14927;51.210;6.838;2024-03-06T06:18:52;10.00;68.80
27492;DHT22;14927;51.210;6.838;2024-03-06T06:21:37;10.00;68.90
27492;DHT22;14927;51.210;6.838;2024-03-06T06:24:21;10.00;69.00
27492;DHT22;14927;51.210;6.838;2024-03-06T06:27:06;10.20;69.20
27492;DHT22;14927;51.210;6.838;2024-03-06T06:29:51;10.10;69.20
27492;DHT22;14927;51.210;6.838;2024-03-06T06:32:38;10.10;69.40
27492;DHT22;14927;51.210;6.838;2024-03-06T06:35:22;10.10;69.50
27492;DHT22;14927;51.210;6.838;2024-03-06T06:38:06;10.10;69.60
27492;DHT22;14927;51.210;6.838;2024-03-06T06:40:51;10.20;69.70
27492;DHT22;14927;51.210;6.838;2024-03-06T06:43:36;10.20;69.70
27492;DHT22;14927;51.210;6.838;2024-03-06T06:46:21;10.20;69.70
27492;DHT22;14927;51.210;6.838;2024-03-06T06:49:06;10.30;69.70
27492;DHT22;14927;51.210;6.838;2024-03-06T06:51:51;10.30;69.80
27492;DHT22;14927;51.210;6.838;2024-03-06T06:54:36;10.40;69.80
27492;DHT22;14927;51.210;6.838;2024-03-06T06:57:20;10.30;69.80
27492;DHT22;14927;51.210;6.838;2024-03-06T07:00:06;10.40;69.90
27492;DHT22;14927;51.210;6.838;2024-03-06T07:02:57;10.40;69.90
27492;DHT22;14927;51.210;6.838;2024-03-06T07:05:43;10.50;70.00
27492;DHT22;14927;51.210;6.838;2024-03-06T07:08:27;10.60;70.20
27492;DHT22;14927;51.210;6.838;2024-03-06T07:11:12;10.50;70.20
27492;DHT22;14927;51.210;6.838;2024-03-06T07:13:57;10.60;70.40
27492;DHT22;14927;51.210;6.838;2024-03-06T07:16:42;10.60;70.50
27492;DHT22;14927;51.210;6.838;2024-03-06T07:19:27;10.80;70.80
27492;DHT22;14927;51.210;6.838;2024-03-06T07:22:12;10.70;70.80
27492;DHT22;14927;51.210;6.838;2024-03-06T07:24:57;10.70;70.90
27492;DHT22;14927;51.210;6.838;2024-03-06T07:27:41;11.00;71.10
27492;DHT22;14927;51.210;6.838;2024-03-06T07:30:26;10.80;71.10
27492;DHT22;14927;51.210;6.838;2024-03-06T07:33:13;11.10;71.30
27492;DHT22;14927;51.210;6.838;2024-03-06T07:35:58;11.20;71.40
27492;DHT22;14927;51.210;6.838;2024-03-06T07:38:43;11.10;71.30
27492;DHT22;14927;51.210;6.838;2024-03-06T07:41:27;11.10;71.30
27492;DHT22;14927;51.210;6.838;2024-03-06T07:44:12;11.30;71.40
27492;DHT22;14927;51.210;6.838;2024-03-06T07:46:57;11.20;71.20
27492;DHT22;14927;51.210;6.838;2024-03-06T07:49:41;11.20;71.10
27492;DHT22;14927;51.210;6.838;2024-03-06T07:52:26;11.30;71.10
27492;DHT22;14927;51.210;6.838;2024-03-06T07:55:11;11.50;71.00
27492;DHT22;14927;51.210;6.838;2024-03-06T07:57:55;11.50;70.90
27492;DHT22;14927;51.210;6.838;2024-03-06T08:00:40;11.40;70.70
27492;DHT22;14927;51.210;6.838;2024-03-06T08:03:25;11.60;70.60
27492;DHT22;14927;51.210;6.838;2024-03-06T08:06:10;11.70;70.50
27492;DHT22;14927;51.210;6.838;2024-03-06T08:08:54;11.60;70.20
27492;DHT22;14927;51.210;6.838;2024-03-06T08:11:39;11.70;70.00
27492;DHT22;14927;51.210;6.838;2024-03-06T08:14:23;11.90;70.00
27492;DHT22;14927;51.210;6.838;2024-03-06T08:17:08;11.70;69.70
27492;DHT22;14927;51.210;6.838;2024-03-06T08:19:52;11.70;69.60
27492;DHT22;14927;51.210;6.838;2024-03-06T08:22:39;12.00;69.70
27492;DHT22;14927;51.210;6.838;2024-03-06T08:25:25;11.80;69.40
27492;DHT22;14927;51.210;6.838;2024-03-06T08:28:09;12.10;69.30
27492;DHT22;14927;51.210;6.838;2024-03-06T08:30:54;12.10;69.10
27492;DHT22;14927;51.210;6.838;2024-03-06T08:33:39;11.90;68.80
27492;DHT22;14927;51.210;6.838;2024-03-06T08:36:23;12.00;68.70
27492;DHT22;14927;51.210;6.838;2024-03-06T08:39:08;12.00;68.40
27492;DHT22;14927;51.210;6.838;2024-03-06T08:41:58;12.10;68.20
27492;DHT22;14927;51.210;6.838;2024-03-06T08:44:42;12.10;67.90
27492;DHT22;14927;51.210;6.838;2024-03-06T08:47:27;12.20;67.80
27492;DHT22;14927;51.210;6.838;2024-03-06T08:50:12;12.10;67.50
27492;DHT22;14927;51.210;6.838;2024-03-06T08:52:57;12.20;67.40
27492;DHT22;14927;51.210;6.838;2024-03-06T08:55:41;12.20;67.30
27492;DHT22;14927;51.210;6.838;2024-03-06T08:58:26;12.30;67.80
27492;DHT22;14927;51.210;6.838;2024-03-06T09:01:10;12.20;66.90
27492;DHT22;14927;51.210;6.838;2024-03-06T09:03:55;12.30;67.20
27492;DHT22;14927;51.210;6.838;2024-03-06T09:06:41;12.30;67.40
27492;DHT22;14927;51.210;6.838;2024-03-06T09:09:26;12.40;68.30
27492;DHT22;14927;51.210;6.838;2024-03-06T09:12:12;12.50;67.40
27492;DHT22;14927;51.210;6.838;2024-03-06T09:14:58;12.50;67.40
27492;DHT22;14927;51.210;6.838;2024-03-06T09:17:44;12.60;67.20
27492;DHT22;14927;51.210;6.838;2024-03-06T09:20:31;12.60;67.00
27492;DHT22;14927;51.210;6.838;2024-03-06T09:23:16;12.80;66.80
27492;DHT22;14927;51.210;6.838;2024-03-06T09:26:00;12.70;66.60
27492;DHT22;14927;51.210;6.838;2024-03-06T09:28:45;12.80;66.60
27492;DHT22;14927;51.210;6.838;2024-03-06T09:31:29;13.00;66.70
27492;DHT22;14927;51.210;6.838;2024-03-06T09:34:14;12.90;66.50
27492;DHT22;14927;51.210;6.838;2024-03-06T09:36:59;12.90;66.20
27492;DHT22;14927;51.210;6.838;2024-03-06T09:39:44;13.10;66.00
27492;DHT22;14927;51.210;6.838;2024-03-06T09:42:31;13.00;65.90
27492;DHT22;14927;51.210;6.838;2024-03-06T09:45:16;13.10;66.00
27492;DHT22;14927;51.210;6.838;2024-03-06T09:48:00;13.20;66.00
27492;DHT22;14927;51.210;6.838;2024-03-06T09:50:46;13.30;65.90
27492;DHT22;14927;51.210;6.838;2024-03-06T09:53:34;13.40;65.70
27492;DHT22;14927;51.210;6.838;2024-03-06T09:56:19;13.40;65.30
27492;DHT22;14927;51.210;6.838;2024-03-06T09:59:03;13.40;64.90
27492;DHT22;14927;51.210;6.838;2024-03-06T10:01:58;13.50;64.70
27492;DHT22;14927;51.210;6.838;2024-03-06T10:04:46;13.60;64.30
27492;DHT22;14927;51.210;6.838;2024-03-06T10:07:31;13.60;64.30
27492;DHT22;14927;51.210;6.838;2024-03-06T10:10:16;13.60;64.20
27492;DHT22;14927;51.210;6.838;2024-03-06T10:13:01;13.70;63.90
27492;DHT22;14927;51.210;6.838;2024-03-06T10:16:01;13.70;63.60
27492;DHT22;14927;51.210;6.838;2024-03-06T10:18:47;13.70;63.30
27492;DHT22;14927;51.210;6.838;2024-03-06T10:21:39;13.80;63.60
27492;DHT22;14927;51.210;6.838;2024-03-06T10:24:26;13.60;63.40
27492;DHT22;14927;51.210;6.838;2024-03-06T10:27:15;13.90;63.80
27492;DHT22;14927;51.210;6.838;2024-03-06T10:30:04;13.90;63.90
27492;DHT22;14927;51.210;6.838;2024-03-06T10:32:50;13.90;63.80
27492;DHT22;14927;51.210;6.838;2024-03-06T10:35:35;13.90;63.80
27492;DHT22;14927;51.210;6.838;2024-03-06T10:38:24;13.90;63.60
27492;DHT22;14927;51.210;6.838;2024-03-06T10:41:14;13.80;63.30
27492;DHT22;14927;51.210;6.838;2024-03-06T10:43:59;14.10;63.10
27492;DHT22;14927;51.210;6.838;2024-03-06T10:46:45;14.10;62.90
27492;DHT22;14927;51.210;6.838;2024-03-06T10:49:41;14.20;62.70
27492;DHT22;14927;51.210;6.838;2024-03-06T10:52:27;14.20;62.50
27492;DHT22;14927;51.210;6.838;2024-03-06T10:55:12;14.30;63.20
27492;DHT22;14927;51.210;6.838;2024-03-06T10:57:58;14.30;62.30
27492;DHT22;14927;51.210;6.838;2024-03-06T11:00:47;14.30;62.20
27492;DHT22;14927;51.210;6.838;2024-03-06T11:03:32;14.30;62.30
27492;DHT22;14927;51.210;6.838;2024-03-06T11:06:20;14.30;62.30
27492;DHT22;14927;51.210;6.838;2024-03-06T11:09:05;14.40;62.30
27492;DHT22;14927;51.210;6.838;2024-03-06T11:27:04;14.70;61.50
27492;DHT22;14927;51.210;6.838;2024-03-06T11:30:08;14.80;61.40
27492;DHT22;14927;51.210;6.838;2024-03-06T11:33:00;14.80;60.70
27492;DHT22;14927;51.210;6.838;2024-03-06T11:39:09;15.10;60.30
27492;DHT22;14927;51.210;6.838;2024-03-06T11:41:54;15.10;60.70
27492;DHT22;14927;51.210;6.838;2024-03-06T11:44:52;15.20;60.60
27492;DHT22;14927;51.210;6.838;2024-03-06T11:48:03;15.40;59.50
27492;DHT22;14927;51.210;6.838;2024-03-06T11:50:48;15.40;59.10
27492;DHT22;14927;51.210;6.838;2024-03-06T11:53:36;15.60;59.50
27492;DHT22;14927;51.210;6.838;2024-03-06T11:56:23;15.70;59.70
27492;DHT22;14927;51.210;6.838;2024-03-06T11:59:08;15.80;59.40
27492;DHT22;14927;51.210;6.838;2024-03-06T12:01:55;16.00;59.00
27492;DHT22;14927;51.210;6.838;2024-03-06T12:04:41;16.10;58.60
27492;DHT22;14927;51.210;6.838;2024-03-06T12:07:26;16.50;58.20
27492;DHT22;14927;51.210;6.838;2024-03-06T12:10:11;16.40;57.60
27492;DHT22;14927;51.210;6.838;2024-03-06T12:12:56;16.60;57.30
27492;DHT22;14927;51.210;6.838;2024-03-06T12:15:44;16.70;56.70
27492;DHT22;14927;51.210;6.838;2024-03-06T12:18:31;17.00;56.00
27492;DHT22;14927;51.210;6.838;2024-03-06T12:21:17;17.10;55.90
27492;DHT22;14927;51.210;6.838;2024-03-06T12:24:07;17.30;55.20
27492;DHT22;14927;51.210;6.838;2024-03-06T12:27:00;17.50;54.50
27492;DHT22;14927;51.210;6.838;2024-03-06T12:29:52;17.70;53.40
27492;DHT22;14927;51.210;6.838;2024-03-06T12:32:36;17.80;52.90
27492;DHT22;14927;51.210;6.838;2024-03-06T12:35:28;18.00;53.20
27492;DHT22;14927;51.210;6.838;2024-03-06T12:38:14;18.20;51.70
27492;DHT22;14927;51.210;6.838;2024-03-06T12:41:00;18.40;51.90
27492;DHT22;14927;51.210;6.838;2024-03-06T12:43:44;18.60;51.20
27492;DHT22;14927;51.210;6.838;2024-03-06T12:46:29;18.70;50.80
27492;DHT22;14927;51.210;6.838;2024-03-06T12:49:14;18.90;50.30
27492;DHT22;14927;51.210;6.838;2024-03-06T12:51:59;18.90;50.00
27492;DHT22;14927;51.210;6.838;2024-03-06T12:54:43;19.00;50.00
27492;DHT22;14927;51.210;6.838;2024-03-06T12:57:28;19.20;49.80
27492;DHT22;14927;51.210;6.838;2024-03-06T13:00:13;19.40;49.60
27492;DHT22;14927;51.210;6.838;2024-03-06T13:03:00;19.60;49.00
27492;DHT22;14927;51.210;6.838;2024-03-06T13:05:45;19.80;48.40
27492;DHT22;14927;51.210;6.838;2024-03-06T13:08:31;20.00;47.80
27492;DHT22;14927;51.210;6.838;2024-03-06T14:47:44;21.90;39.80
27492;DHT22;14927;51.210;6.838;2024-03-06T14:59:43;21.10;40.20
27492;DHT22;14927;51.210;6.838;2024-03-06T15:03:00;21.00;40.40
27492;DHT22;14927;51.210;6.838;2024-03-06T15:20:01;20.00;41.70
27492;DHT22;14927;51.210;6.838;2024-03-06T15:23:15;19.70;42.20
27492;DHT22;14927;51.210;6.838;2024-03-06T15:27:34;19.40;42.20
27492;DHT22;14927;51.210;6.838;2024-03-06T15:38:38;19.10;43.50
27492;DHT22;14927;51.210;6.838;2024-03-06T15:41:22;19.00;43.50
27492;DHT22;14927;51.210;6.838;2024-03-06T15:44:23;18.90;44.40
27492;DHT22;14927;51.210;6.838;2024-03-06T15:47:32;18.80;43.80
27492;DHT22;14927;51.210;6.838;2024-03-06T15:51:05;18.60;44.20
27492;DHT22;14927;51.210;6.838;2024-03-06T15:54:19;18.50;44.30
27492;DHT22;14927;51.210;6.838;2024-03-06T15:57:13;18.70;44.80
27492;DHT22;14927;51.210;6.838;2024-03-06T16:00:04;18.40;44.90
27492;DHT22;14927;51.210;6.838;2024-03-06T16:02:53;18.30;45.10
27492;DHT22;14927;51.210;6.838;2024-03-06T16:05:38;18.00;45.20
27492;DHT22;14927;51.210;6.838;2024-03-06T16:08:22;18.10;45.30
27492;DHT22;14927;51.210;6.838;2024-03-06T16:11:13;18.10;45.50
27492;DHT22;14927;51.210;6.838;2024-03-06T16:13:57;18.10;45.70
27492;DHT22;14927;51.210;6.838;2024-03-06T16:16:45;18.10;45.80
27492;DHT22;14927;51.210;6.838;2024-03-06T16:19:29;17.90;45.80
27492;DHT22;14927;51.210;6.838;2024-03-06T16:22:41;17.90;45.90
27492;DHT22;14927;51.210;6.838;2024-03-06T16:30:18;17.80;46.10
27492;DHT22;14927;51.210;6.838;2024-03-06T16:33:50;17.60;46.10
27492;DHT22;14927;51.210;6.838;2024-03-06T16:45:38;17.40;46.50
27492;DHT22;14927;51.210;6.838;2024-03-06T17:15:34;17.10;48.30
27492;DHT22;14927;51.210;6.838;2024-03-06T17:18:37;17.10;48.30
27492;DHT22;14927;51.210;6.838;2024-03-06T17:21:30;17.10;48.40
27492;DHT22;14927;51.210;6.838;2024-03-06T17:24:28;17.00;48.40
27492;DHT22;14927;51.210;6.838;2024-03-06T17:27:26;17.10;48.60
27492;DHT22;14927;51.210;6.838;2024-03-06T17:30:16;17.00;48.70
27492;DHT22;14927;51.210;6.838;2024-03-06T17:36:40;16.90;48.90
27492;DHT22;14927;51.210;6.838;2024-03-06T17:39:31;16.90;49.00
27492;DHT22;14927;51.210;6.838;2024-03-06T17:42:16;16.80;48.90
27492;DHT22;14927;51.210;6.838;2024-03-06T17:45:27;16.70;48.90
27492;DHT22;14927;51.210;6.838;2024-03-06T17:48:30;16.70;49.20
27492;DHT22;14927;51.210;6.838;2024-03-06T17:51:34;16.60;49.20
27492;DHT22;14927;51.210;6.838;2024-03-06T17:57:21;16.60;49.20
27492;DHT22;14927;51.210;6.838;2024-03-06T18:00:09;16.60;49.30
27492;DHT22;14927;51.210;6.838;2024-03-06T18:02:58;16.60;49.40
27492;DHT22;14927;51.210;6.838;2024-03-06T18:05:43;16.50;49.40
27492;DHT22;14927;51.210;6.838;2024-03-06T18:08:31;16.50;49.40
27492;DHT22;14927;51.210;6.838;2024-03-06T18:11:23;16.40;49.50
27492;DHT22;14927;51.210;6.838;2024-03-06T18:14:07;16.50;49.50
27492;DHT22;14927;51.210;6.838;2024-03-06T18:16:54;16.40;49.50
27492;DHT22;14927;51.210;6.838;2024-03-06T18:19:42;16.30;49.40
27492;DHT22;14927;51.210;6.838;2024-03-06T18:22:29;16.30;49.50
27492;DHT22;14927;51.210;6.838;2024-03-06T18:25:41;16.30;49.60
27492;DHT22;14927;51.210;6.838;2024-03-06T18:28:44;16.20;49.50
27492;DHT22;14927;51.210;6.838;2024-03-06T18:31:30;16.20;49.60
27492;DHT22;14927;51.210;6.838;2024-03-06T18:34:17;16.20;49.60
27492;DHT22;14927;51.210;6.838;2024-03-06T18:37:40;16.20;49.80
27492;DHT22;14927;51.210;6.838;2024-03-06T18:47:07;15.90;49.90
27492;DHT22;14927;51.210;6.838;2024-03-06T18:49:55;16.00;50.10
27492;DHT22;14927;51.210;6.838;2024-03-06T18:52:43;15.90;50.20
27492;DHT22;14927;51.210;6.838;2024-03-06T18:55:30;16.00;50.40
27492;DHT22;14927;51.210;6.838;2024-03-06T18:58:25;16.00;50.60
27492;DHT22;14927;51.210;6.838;2024-03-06T19:01:13;16.10;50.80
27492;DHT22;14927;51.210;6.838;2024-03-06T19:04:06;15.90;50.80
27492;DHT22;14927;51.210;6.838;2024-03-06T19:07:20;15.90;50.90
27492;DHT22;14927;51.210;6.838;2024-03-06T19:10:26;15.90;51.10
27492;DHT22;14927;51.210;6.838;2024-03-06T19:13:14;15.90;51.40
27492;DHT22;14927;51.210;6.838;2024-03-06T19:16:08;15.80;51.30
27492;DHT22;14927;51.210;6.838;2024-03-06T19:22:38;15.80;51.80
27492;DHT22;14927;51.210;6.838;2024-03-06T19:25:26;15.60;51.60
27492;DHT22;14927;51.210;6.838;2024-03-06T19:28:18;15.70;51.70
27492;DHT22;14927;51.210;6.838;2024-03-06T19:31:09;15.60;51.80
27492;DHT22;14927;51.210;6.838;2024-03-06T19:34:02;15.60;51.90
27492;DHT22;14927;51.210;6.838;2024-03-06T19:36:47;15.60;51.90
27492;DHT22;14927;51.210;6.838;2024-03-06T19:39:34;15.50;52.10
27492;DHT22;14927;51.210;6.838;2024-03-06T19:42:19;15.50;52.20
27492;DHT22;14927;51.210;6.838;2024-03-06T19:47:40;15.40;52.40
27492;DHT22;14927;51.210;6.838;2024-03-06T19:51:00;15.60;52.60
27492;DHT22;14927;51.210;6.838;2024-03-06T19:53:50;15.40;52.60
27492;DHT22;14927;51.210;6.838;2024-03-06T19:56:36;15.40;52.70
27492;DHT22;14927;51.210;6.838;2024-03-06T19:59:21;15.30;52.80
27492;DHT22;14927;51.210;6.838;2024-03-06T20:02:05;15.20;52.90
27492;DHT22;14927;51.210;6.838;2024-03-06T20:04:50;15.20;53.20
27492;DHT22;14927;51.210;6.838;2024-03-06T20:07:35;15.20;53.30
27492;DHT22;14927;51.210;6.838;2024-03-06T20:10:19;15.10;53.30
27492;DHT22;14927;51.210;6.838;2024-03-06T20:13:04;15.10;53.50
27492;DHT22;14927;51.210;6.838;2024-03-06T20:15:49;15.10;53.60
27492;DHT22;14927;51.210;6.838;2024-03-06T20:18:34;15.00;53.70
27492;DHT22;14927;51.210;6.838;2024-03-06T20:21:18;15.00;53.80
27492;DHT22;14927;51.210;6.838;2024-03-06T20:24:08;14.90;53.90
27492;DHT22;14927;51.210;6.838;2024-03-06T20:26:53;14.90;54.00
27492;DHT22;14927;51.210;6.838;2024-03-06T20:29:40;14.90;54.10
27492;DHT22;14927;51.210;6.838;2024-03-06T20:32:24;14.80;54.10
27492;DHT22;14927;51.210;6.838;2024-03-06T20:35:11;14.80;54.20
27492;DHT22;14927;51.210;6.838;2024-03-06T20:37:56;15.00;54.50
27492;DHT22;14927;51.210;6.838;2024-03-06T20:40:41;14.80;54.50
27492;DHT22;14927;51.210;6.838;2024-03-06T20:43:26;14.70;54.60
27492;DHT22;14927;51.210;6.838;2024-03-06T20:46:11;14.80;54.80
27492;DHT22;14927;51.210;6.838;2024-03-06T20:48:55;14.60;54.80
27492;DHT22;14927;51.210;6.838;2024-03-06T20:51:43;14.60;55.00
27492;DHT22;14927;51.210;6.838;2024-03-06T20:54:28;14.50;55.00
27492;DHT22;14927;51.210;6.838;2024-03-06T20:57:12;14.50;55.00
27492;DHT22;14927;51.210;6.838;2024-03-06T20:59:57;14.50;55.20
27492;DHT22;14927;51.210;6.838;2024-03-06T21:02:42;14.40;55.20
27492;DHT22;14927;51.210;6.838;2024-03-06T21:05:28;14.40;55.30
27492;DHT22;14927;51.210;6.838;2024-03-06T21:08:16;14.30;55.40